Terminal Aerodrome Forecast
Issued by NWS

Home | Current Version | Previous Version | Text Only | Print | Product List | Glossary On
Versions: 1 2 3 4 5 6 7 8 9 10 11 12 13 14 15
000
FTUS44 KBMX 042328
TAFTOI
TAF
KTOI 042328Z 0500/0524 VRB03KT P6SM SCT050
     FM050200 00000KT P6SM SKC
      TEMPO 0509/0512 4SM BR
     FM051400 VRB03KT P6SM FEW030
     FM052000 09003KT P6SM VCTS SCT050CB=

USA.gov is the U.S. government's official web portal to all federal, state and local government web resources and services.